createdAt,value
2023-01-23T00:02:25.381Z,2.80
2023-01-23T00:05:15.839Z,2.10
2023-01-23T00:08:06.978Z,2.20
2023-01-23T00:10:58.139Z,2.30
2023-01-23T00:13:48.663Z,2.20
2023-01-23T00:16:39.143Z,2.20
2023-01-23T00:19:29.144Z,2.60
2023-01-23T00:22:19.374Z,2.30
2023-01-23T00:25:10.952Z,2.30
2023-01-23T00:28:01.231Z,2.50
2023-01-23T00:30:51.449Z,2.20
2023-01-23T00:33:41.639Z,2.30
2023-01-23T00:36:34.279Z,2.10
2023-01-23T00:39:25.274Z,2.10
2023-01-23T00:42:15.825Z,2.10
2023-01-23T00:45:06.343Z,2.30
2023-01-23T00:47:56.839Z,2.20
2023-01-23T00:50:47.218Z,2.30
2023-01-23T00:53:37.712Z,2.20
2023-01-23T00:56:27.794Z,2.30
2023-01-23T00:59:17.600Z,2.10
2023-01-23T01:02:07.479Z,2.00
2023-01-23T01:04:58.179Z,2.50
2023-01-23T01:07:48.981Z,2.70
2023-01-23T01:10:40.771Z,2.90
2023-01-23T01:13:30.744Z,2.40
2023-01-23T01:16:21.028Z,2.90
2023-01-23T01:19:11.399Z,2.50
2023-01-23T01:22:01.983Z,2.70
2023-01-23T01:24:52.579Z,2.60
2023-01-23T01:27:43.281Z,2.30
2023-01-23T01:30:33.917Z,2.50
2023-01-23T01:33:24.402Z,2.60
2023-01-23T01:36:18.264Z,2.60
2023-01-23T01:39:10.335Z,2.70
2023-01-23T01:42:01.192Z,2.50
2023-01-23T01:44:57.979Z,2.30
2023-01-23T01:47:49.259Z,2.20
2023-01-23T01:50:40.015Z,2.60
2023-01-23T01:53:33.946Z,2.40
2023-01-23T01:56:24.436Z,2.00
2023-01-23T01:59:16.818Z,2.50
2023-01-23T02:02:13.173Z,2.50
2023-01-23T02:05:08.945Z,2.50
2023-01-23T02:08:07.109Z,2.70
2023-01-23T02:10:58.123Z,2.20
2023-01-23T02:13:48.613Z,2.60
2023-01-23T02:16:46.916Z,2.80
2023-01-23T02:19:47.112Z,2.50
2023-01-23T02:22:54.302Z,2.20
2023-01-23T02:25:51.727Z,2.70
2023-01-23T02:28:46.483Z,2.50
2023-01-23T02:31:42.981Z,2.90
2023-01-23T02:34:33.749Z,2.50
2023-01-23T02:37:26.245Z,3.00
2023-01-23T02:40:17.298Z,2.60
2023-01-23T02:43:10.929Z,2.80
2023-01-23T02:46:07.498Z,2.40
2023-01-23T02:48:58.052Z,2.60
2023-01-23T02:51:48.285Z,3.40
2023-01-23T02:54:40.586Z,3.30
2023-01-23T02:57:31.563Z,3.00
2023-01-23T03:00:23.078Z,2.70
2023-01-23T03:03:14.155Z,2.30
2023-01-23T03:06:06.172Z,3.30
2023-01-23T03:08:57.713Z,2.70
2023-01-23T03:11:48.926Z,3.00
2023-01-23T03:14:39.331Z,2.40
2023-01-23T03:17:30.838Z,2.70
2023-01-23T03:20:23.970Z,2.70
2023-01-23T03:23:14.723Z,3.10
2023-01-23T03:26:05.077Z,3.50
2023-01-23T03:29:13.014Z,3.40
2023-01-23T03:32:03.407Z,3.40
2023-01-23T03:34:53.955Z,3.30
2023-01-23T03:37:46.449Z,3.40
2023-01-23T03:40:54.395Z,3.10
2023-01-23T03:43:45.408Z,3.60
2023-01-23T03:46:36.004Z,3.00
2023-01-23T03:49:26.416Z,3.20
2023-01-23T03:52:20.805Z,2.80
2023-01-23T03:55:12.580Z,2.60
2023-01-23T03:58:03.212Z,2.60
2023-01-23T04:00:55.257Z,2.30
2023-01-23T04:03:45.845Z,2.80
2023-01-23T04:06:36.256Z,2.50
2023-01-23T04:09:28.066Z,2.40
2023-01-23T04:12:19.687Z,2.50
2023-01-23T04:15:14.123Z,2.40
2023-01-23T04:18:03.991Z,2.50
2023-01-23T04:20:54.148Z,2.40
2023-01-23T04:23:44.059Z,2.30
2023-01-23T04:26:35.185Z,2.10
2023-01-23T04:29:25.844Z,2.30
2023-01-23T04:32:16.999Z,2.20
2023-01-23T04:35:11.114Z,2.00
2023-01-23T04:38:02.207Z,2.30
2023-01-23T04:40:53.080Z,2.00
2023-01-23T04:43:42.966Z,2.40
2023-01-23T04:46:34.061Z,2.60
2023-01-23T04:49:29.972Z,2.30
2023-01-23T04:52:20.055Z,1.90
2023-01-23T04:55:16.846Z,1.90
2023-01-23T04:58:07.105Z,2.70
2023-01-23T05:01:02.558Z,2.10
2023-01-23T05:03:55.389Z,2.20
2023-01-23T05:06:46.137Z,2.10
2023-01-23T05:09:36.439Z,1.80
2023-01-23T05:12:26.943Z,1.90
2023-01-23T05:15:18.478Z,1.90
2023-01-23T05:18:09.583Z,2.00
2023-01-23T05:20:59.464Z,1.90
2023-01-23T05:23:49.053Z,1.90
2023-01-23T05:26:40.235Z,2.20
2023-01-23T05:29:30.195Z,1.90
2023-01-23T05:32:25.828Z,1.90
2023-01-23T05:35:20.989Z,2.40
2023-01-23T05:38:11.851Z,2.30
2023-01-23T05:41:02.253Z,2.00
2023-01-23T05:44:30.638Z,2.50
2023-01-23T05:47:28.179Z,1.90
2023-01-23T05:50:22.703Z,2.00
2023-01-23T05:53:12.415Z,1.80
2023-01-23T05:56:06.554Z,2.30
2023-01-23T05:59:03.953Z,1.90
2023-01-23T06:02:05.008Z,2.00
2023-01-23T06:05:21.463Z,2.10
2023-01-23T06:08:34.040Z,2.10
2023-01-23T06:11:24.988Z,1.80
2023-01-23T06:14:15.141Z,2.10
2023-01-23T06:17:05.547Z,1.90
2023-01-23T06:19:55.991Z,1.90
2023-01-23T06:22:46.790Z,1.60
2023-01-23T06:25:37.214Z,1.90
2023-01-23T06:28:29.299Z,1.70
2023-01-23T06:31:19.710Z,1.80
2023-01-23T06:34:13.058Z,1.80
2023-01-23T06:37:06.798Z,1.70
2023-01-23T06:39:57.208Z,1.80
2023-01-23T06:42:47.406Z,1.60
2023-01-23T06:45:37.854Z,1.60
2023-01-23T06:48:28.082Z,1.70
2023-01-23T06:51:18.019Z,1.70
2023-01-23T06:54:08.604Z,2.50
2023-01-23T06:56:58.977Z,2.20
2023-01-23T06:59:48.806Z,1.90
2023-01-23T07:02:40.987Z,1.40
2023-01-23T07:05:31.265Z,1.30
2023-01-23T07:08:21.161Z,1.70
2023-01-23T07:11:16.145Z,1.70
2023-01-23T07:14:06.952Z,1.50
2023-01-23T07:16:58.506Z,2.00
2023-01-23T07:19:49.091Z,2.30
2023-01-23T07:22:40.043Z,2.10
2023-01-23T07:25:31.313Z,2.00
2023-01-23T07:28:21.719Z,1.80
2023-01-23T07:31:11.444Z,1.90
2023-01-23T07:34:02.126Z,1.80
2023-01-23T07:36:52.511Z,1.60
2023-01-23T07:39:43.574Z,1.50
2023-01-23T07:42:33.581Z,1.50
2023-01-23T07:45:24.210Z,1.70
2023-01-23T07:48:15.185Z,1.50
2023-01-23T07:51:06.779Z,1.30
2023-01-23T07:53:57.161Z,1.70
2023-01-23T07:56:49.944Z,1.60
2023-01-23T07:59:40.119Z,1.70
2023-01-23T08:02:30.528Z,1.70
2023-01-23T08:05:20.994Z,1.70
2023-01-23T08:08:13.785Z,1.40
2023-01-23T08:11:06.815Z,1.50
2023-01-23T08:13:56.583Z,1.30
2023-01-23T08:16:49.479Z,1.40
2023-01-23T08:19:39.599Z,1.60
2023-01-23T08:22:29.714Z,1.40
2023-01-23T08:25:19.891Z,1.30
2023-01-23T08:28:10.067Z,1.40
2023-01-23T08:31:06.259Z,1.40
2023-01-23T08:33:57.563Z,1.60
2023-01-23T08:36:47.653Z,1.40
2023-01-23T08:39:37.746Z,1.40
2023-01-23T08:42:28.052Z,1.20
2023-01-23T08:45:18.323Z,1.40
2023-01-23T08:48:09.508Z,1.00
2023-01-23T08:51:04.712Z,1.10
2023-01-23T08:53:56.664Z,1.10
2023-01-23T08:56:46.884Z,1.40
2023-01-23T08:59:36.978Z,2.40
2023-01-23T09:02:27.806Z,3.00
2023-01-23T09:05:17.787Z,1.80
2023-01-23T09:08:07.799Z,1.80
2023-01-23T09:11:03.002Z,1.70
2023-01-23T09:13:54.059Z,2.60
2023-01-23T09:16:44.147Z,2.30
2023-01-23T09:19:36.535Z,1.40
2023-01-23T09:22:26.153Z,1.20
2023-01-23T09:25:16.088Z,1.20
2023-01-23T09:28:06.922Z,1.10
2023-01-23T09:30:57.245Z,1.20
2023-01-23T09:33:47.119Z,1.00
2023-01-23T09:36:43.375Z,1.30
2023-01-23T09:39:33.372Z,1.40
2023-01-23T09:42:28.602Z,1.40
2023-01-23T09:45:24.265Z,1.10
2023-01-23T09:48:22.070Z,1.00
2023-01-23T09:51:19.802Z,1.10
2023-01-23T09:54:22.907Z,1.10
2023-01-23T09:57:19.694Z,1.20
2023-01-23T10:00:21.845Z,1.30
2023-01-23T10:03:17.359Z,1.10
2023-01-23T10:06:20.712Z,1.00
2023-01-23T10:09:27.606Z,1.10
2023-01-23T10:12:31.089Z,1.10
2023-01-23T10:15:31.947Z,1.10
2023-01-23T10:18:27.645Z,1.20
2023-01-23T10:21:28.124Z,1.20
2023-01-23T10:24:40.231Z,1.20
2023-01-23T10:27:36.265Z,1.40
2023-01-23T10:30:31.133Z,1.20
2023-01-23T10:33:21.404Z,1.20
2023-01-23T10:36:23.980Z,1.30
2023-01-23T10:39:17.798Z,0.90
2023-01-23T10:42:13.642Z,1.00
2023-01-23T10:45:04.236Z,1.00
2023-01-23T10:47:55.451Z,1.50
2023-01-23T10:50:46.199Z,1.30
2023-01-23T10:53:36.656Z,1.30
2023-01-23T10:56:26.266Z,1.40
2023-01-23T10:59:27.963Z,1.30
2023-01-23T11:02:31.147Z,1.30
2023-01-23T11:05:50.411Z,1.40
2023-01-23T11:08:51.321Z,1.20
2023-01-23T11:11:43.189Z,1.20
2023-01-23T11:14:34.515Z,1.00
2023-01-23T11:17:33.255Z,1.40
2023-01-23T11:20:30.520Z,1.30
2023-01-23T11:23:21.501Z,1.20
2023-01-23T11:26:36.786Z,0.90
2023-01-23T11:29:30.436Z,1.00
2023-01-23T11:32:22.209Z,1.20
2023-01-23T11:35:17.572Z,1.10
2023-01-23T11:38:12.549Z,0.90
2023-01-23T11:41:02.897Z,1.00
2023-01-23T11:43:54.081Z,1.10
2023-01-23T11:47:14.289Z,1.40
2023-01-23T11:50:35.406Z,1.00
2023-01-23T11:53:42.213Z,1.20
2023-01-23T11:57:03.220Z,1.00
2023-01-23T12:00:14.817Z,0.80
2023-01-23T12:03:25.843Z,0.80
2023-01-23T12:06:40.131Z,0.80
2023-01-23T12:09:40.266Z,1.00
2023-01-23T12:12:45.436Z,1.00
2023-01-23T12:15:45.084Z,1.10
2023-01-23T12:18:43.675Z,0.90
2023-01-23T12:21:40.324Z,1.00
2023-01-23T12:24:45.887Z,1.00
2023-01-23T12:27:43.887Z,1.00
2023-01-23T12:30:53.896Z,1.00
2023-01-23T12:33:59.561Z,1.10
2023-01-23T12:37:16.812Z,1.00
2023-01-23T12:40:22.800Z,1.00
2023-01-23T12:43:19.502Z,0.90
2023-01-23T12:46:14.059Z,0.80
2023-01-23T12:49:15.562Z,1.00
2023-01-23T12:52:11.853Z,0.90
2023-01-23T12:55:07.904Z,0.90
2023-01-23T12:58:09.131Z,0.90
2023-01-23T13:01:23.024Z,0.80
2023-01-23T13:04:21.262Z,0.90
2023-01-23T13:07:26.407Z,0.90
2023-01-23T13:10:47.216Z,1.10
2023-01-23T13:13:37.780Z,0.90
2023-01-23T13:16:31.242Z,1.20
2023-01-23T13:19:45.123Z,1.10
2023-01-23T13:22:38.582Z,0.90
2023-01-23T13:25:28.382Z,1.00
2023-01-23T13:28:44.706Z,0.90
2023-01-23T13:31:47.204Z,0.80
2023-01-23T13:34:42.111Z,0.90
2023-01-23T13:37:55.834Z,0.90
2023-01-23T13:41:23.280Z,0.90
2023-01-23T13:44:21.440Z,0.90
2023-01-23T14:23:03.804Z,1.00
2023-01-23T14:25:56.248Z,1.10
2023-01-23T14:28:58.219Z,1.00
2023-01-23T14:31:51.532Z,1.10
2023-01-23T14:34:42.962Z,1.00
2023-01-23T14:37:38.024Z,0.80
2023-01-23T14:40:37.338Z,1.00
2023-01-23T14:43:35.178Z,0.80
2023-01-23T14:46:35.356Z,1.00
2023-01-23T14:49:30.771Z,0.90
2023-01-23T14:52:29.149Z,0.80
2023-01-23T14:55:33.171Z,0.90
2023-01-23T14:58:26.662Z,0.90
2023-01-23T15:01:16.965Z,0.80
2023-01-23T15:04:21.187Z,0.90
2023-01-23T15:07:18.911Z,0.80
2023-01-23T15:10:17.703Z,0.80
2023-01-23T15:13:10.418Z,0.90
2023-01-23T15:16:03.472Z,0.80
2023-01-23T15:18:58.090Z,0.90
2023-01-23T15:21:48.502Z,0.90
2023-01-23T15:24:38.478Z,0.90
2023-01-23T15:27:32.795Z,0.80
2023-01-23T15:30:42.594Z,0.90
2023-01-23T15:33:37.804Z,0.90
2023-01-23T15:36:31.228Z,0.90
2023-01-23T15:39:23.335Z,1.00
2023-01-23T15:42:34.313Z,0.90
2023-01-23T15:45:24.664Z,0.90
2023-01-23T15:48:15.080Z,0.90
2023-01-23T15:51:05.412Z,0.90
2023-01-23T15:53:55.979Z,1.00
2023-01-23T15:56:48.790Z,1.00
2023-01-23T15:59:41.576Z,0.90
2023-01-23T16:02:39.370Z,1.00
2023-01-23T16:05:37.352Z,1.00
2023-01-23T16:08:27.233Z,1.10
2023-01-23T16:11:17.516Z,1.10
2023-01-23T16:14:08.219Z,1.20
2023-01-23T16:17:08.119Z,1.10
2023-01-23T16:20:06.779Z,1.10
2023-01-23T16:23:08.423Z,0.90
2023-01-23T16:26:04.378Z,1.10
2023-01-23T16:29:05.068Z,1.00
2023-01-23T16:32:03.491Z,1.10
2023-01-23T16:34:53.645Z,0.90
2023-01-23T16:37:49.159Z,1.00
2023-01-23T16:40:39.140Z,0.90
2023-01-23T16:43:29.236Z,1.00
2023-01-23T16:46:20.254Z,0.90
2023-01-23T16:49:10.161Z,1.00
2023-01-23T16:52:02.711Z,1.00
2023-01-23T16:54:55.809Z,1.00
2023-01-23T16:57:45.851Z,1.10
2023-01-23T17:00:36.506Z,1.20
2023-01-23T17:03:29.203Z,1.00
2023-01-23T17:06:19.508Z,0.90
2023-01-23T17:09:09.920Z,0.90
2023-01-23T17:11:59.694Z,1.00
2023-01-23T17:14:52.717Z,1.00
2023-01-23T17:17:44.903Z,1.20
2023-01-23T17:20:35.337Z,1.10
2023-01-23T17:23:26.418Z,1.00
2023-01-23T17:26:19.112Z,1.00
2023-01-23T17:29:09.070Z,1.00
2023-01-23T17:31:59.148Z,0.90
2023-01-23T17:34:50.462Z,1.20
2023-01-23T17:37:40.835Z,1.10
2023-01-23T17:40:31.043Z,1.00
2023-01-23T17:43:22.765Z,1.00
2023-01-23T17:46:22.029Z,1.10
2023-01-23T17:49:27.498Z,1.20
2023-01-23T17:52:17.310Z,1.40
2023-01-23T17:55:07.979Z,1.20
2023-01-23T17:57:57.714Z,1.30
2023-01-23T18:00:51.232Z,1.50
2023-01-23T18:03:41.247Z,1.40
2023-01-23T18:06:30.986Z,1.10
2023-01-23T18:09:21.447Z,1.30
2023-01-23T18:12:15.488Z,1.40
2023-01-23T18:15:12.697Z,1.20
2023-01-23T18:18:25.032Z,1.50
2023-01-23T18:21:18.702Z,1.50
2023-01-23T18:24:17.238Z,1.30
2023-01-23T18:27:20.077Z,1.40
2023-01-23T18:30:37.713Z,1.40
2023-01-23T18:33:42.602Z,1.50
2023-01-23T18:36:42.266Z,1.60
2023-01-23T18:39:55.556Z,1.80
2023-01-23T18:42:55.713Z,1.80
2023-01-23T18:45:47.058Z,1.80
2023-01-23T18:48:40.645Z,1.90
2023-01-23T18:51:39.920Z,1.70
2023-01-23T18:54:34.753Z,2.50
2023-01-23T18:57:44.543Z,3.00
2023-01-23T19:00:40.602Z,7.50
2023-01-23T19:03:41.777Z,6.00
2023-01-23T19:06:34.978Z,6.40
2023-01-23T19:09:27.064Z,5.70
2023-01-23T19:12:26.195Z,6.20
2023-01-23T19:15:29.014Z,5.70
2023-01-23T19:18:40.818Z,5.50
2023-01-23T19:21:31.528Z,5.00
2023-01-23T19:24:23.386Z,3.90
2023-01-23T19:27:22.386Z,4.80
2023-01-23T19:30:15.482Z,4.10
2023-01-23T19:33:06.150Z,4.30
2023-01-23T19:35:56.753Z,4.70
2023-01-23T19:38:46.946Z,6.30
2023-01-23T19:41:43.183Z,4.30
2023-01-23T19:44:34.003Z,4.60
2023-01-23T19:47:24.047Z,4.00
2023-01-23T19:50:16.805Z,3.70
2023-01-23T19:53:07.927Z,3.50
2023-01-23T19:56:01.355Z,3.60
2023-01-23T19:58:51.987Z,3.70
2023-01-23T20:01:45.741Z,3.60
2023-01-23T20:04:36.431Z,3.40
2023-01-23T20:07:26.563Z,2.70
2023-01-23T20:10:16.495Z,3.20
2023-01-23T20:13:08.693Z,3.10
2023-01-23T20:15:58.920Z,2.90
2023-01-23T20:18:49.927Z,3.40
2023-01-23T20:21:40.235Z,2.70
2023-01-23T20:24:30.534Z,3.40
2023-01-23T20:27:20.410Z,3.10
2023-01-23T20:30:15.814Z,3.20
2023-01-23T20:33:07.791Z,2.90
2023-01-23T20:35:57.957Z,3.40
2023-01-23T20:38:48.074Z,2.90
2023-01-23T20:41:38.031Z,2.90
2023-01-23T20:44:28.629Z,3.30
2023-01-23T20:47:18.645Z,3.00
2023-01-23T20:50:10.952Z,3.00
2023-01-23T20:53:18.743Z,3.00
2023-01-23T20:56:11.283Z,3.30
2023-01-23T20:59:18.994Z,3.10
2023-01-23T21:02:28.164Z,3.60
2023-01-23T21:05:18.104Z,3.40
2023-01-23T21:08:09.183Z,3.00
2023-01-23T21:10:59.218Z,3.60
2023-01-23T21:13:54.626Z,3.30
2023-01-23T21:16:44.560Z,3.30
2023-01-23T21:19:34.659Z,3.70
2023-01-23T21:22:24.830Z,3.50
2023-01-23T21:25:14.671Z,3.30
2023-01-23T21:28:04.589Z,3.20
2023-01-23T21:30:54.277Z,3.40
2023-01-23T21:33:46.447Z,3.40
2023-01-23T21:36:37.108Z,3.20
2023-01-23T21:39:27.000Z,3.80
2023-01-23T21:42:17.295Z,3.60
2023-01-23T21:45:08.501Z,3.60
2023-01-23T21:47:58.853Z,3.60
2023-01-23T21:50:48.417Z,3.40
2023-01-23T21:53:39.187Z,4.00
2023-01-23T21:56:29.003Z,4.60
2023-01-23T21:59:19.076Z,4.10
2023-01-23T22:02:08.963Z,3.70
2023-01-23T22:04:59.058Z,3.70
2023-01-23T22:07:49.299Z,3.40
2023-01-23T22:10:39.226Z,3.60
2023-01-23T22:13:29.263Z,3.70
2023-01-23T22:16:21.001Z,3.30
2023-01-23T22:19:13.504Z,3.30
2023-01-23T22:22:03.201Z,3.40
2023-01-23T22:24:53.068Z,3.30
2023-01-23T22:27:42.658Z,3.80
2023-01-23T22:30:32.490Z,4.00
2023-01-23T22:33:24.068Z,3.20
2023-01-23T22:36:17.671Z,3.60
2023-01-23T22:39:07.896Z,3.00
2023-01-23T22:41:58.603Z,3.00
2023-01-23T22:44:48.929Z,3.00
2023-01-23T22:47:38.803Z,2.70
2023-01-23T22:50:29.570Z,2.80
2023-01-23T22:53:19.090Z,2.70
2023-01-23T22:56:10.794Z,2.80
2023-01-23T22:59:01.560Z,3.20
2023-01-23T23:01:51.228Z,3.10
2023-01-23T23:04:41.229Z,3.40
2023-01-23T23:07:31.724Z,3.70
2023-01-23T23:10:21.715Z,3.70
2023-01-23T23:13:11.584Z,3.70
2023-01-23T23:16:06.076Z,4.00
2023-01-23T23:18:58.619Z,3.70
2023-01-23T23:21:48.681Z,3.80
2023-01-23T23:24:39.063Z,3.70
2023-01-23T23:27:29.406Z,3.60
2023-01-23T23:30:20.698Z,4.20
2023-01-23T23:33:11.102Z,4.50
2023-01-23T23:36:01.055Z,4.00
2023-01-23T23:38:51.082Z,4.20
2023-01-23T23:41:41.816Z,4.30
2023-01-23T23:44:31.995Z,5.00
2023-01-23T23:47:22.227Z,5.50
2023-01-23T23:50:14.420Z,4.90
2023-01-23T23:53:04.374Z,4.20
2023-01-23T23:55:54.671Z,4.70
2023-01-23T23:58:44.573Z,4.40
